Hakkou 21 — JM6662 — position and weather

sailwx.info

Track history (hours):
 
Tides and Currents Weather Stations Pressure Air Temp Water Temp Dewpoint Dewpoint Depression Visibility Wind Speed Wind Dir Waves Ship Positions

Hakkou 21

Last reported at 2018-Jan-24 06:49 UTC. Time now 2018-Jan-24 11:27 UTC.
Position N 33°43' E 134°44'.

Length 121 m; draft 4.8 m.

Type: Cargo ship. MMSI: 431602082.

Date/timePositionNaut miles runAvg speedWind from/ knotsBaromVisibWave heightAir tempDewpointWater temp
2018-Jan-24 06:49N 33°43' E 134°44'616.7
2018-Jan-24 06:26N 33°48' E 134°49'715.5
2018-Jan-24 06:00N 33°54' E 134°53'816.0
2018-Jan-24 05:30N 34°02' E 134°55'815.9
2018-Jan-24 05:00N 34°10' E 134°57'815.3
2018-Jan-24 04:31N 34°17' E 134°58'714.4
2018-Jan-24 04:00N 34°23' E 135°02'714.2
2018-Jan-24 03:31N 34°26' E 135°10'714.4
2018-Jan-24 03:01N 34°30' E 135°18'4 7.7
2018-Jan-24 02:31N 34°32' E 135°22'2 3.3
2018-Jan-24 02:00N 34°31' E 135°23'0 0.3
2018-Jan-24 01:31N 34°31' E 135°24'0 0.0
2018-Jan-24 01:00N 34°31' E 135°24'0 0.0
2018-Jan-24 00:30N 34°31' E 135°24'0 0.0
2018-Jan-23 23:57N 34°31' E 135°24'0 0.0
2018-Jan-23 23:30N 34°31' E 135°24'0 0.0
2018-Jan-23 23:00N 34°31' E 135°24'0 0.0
2018-Jan-23 22:30N 34°31' E 135°24'0 0.1
2018-Jan-23 22:00N 34°31' E 135°24'2 4.7
2018-Jan-23 21:30N 34°32' E 135°21'816.7
2018-Jan-23 21:01N 34°27' E 135°12'816.6
2018-Jan-23 20:31N 34°22' E 135°04'714.6
2018-Jan-23 20:00N 34°15' E 134°60'714.8
2018-Jan-23 19:31N 34°08' E 135°00'816.0
2018-Jan-23 19:00N 34°01' E 134°57'816.5
2018-Jan-23 18:30N 33°53' E 134°54'916.2
2018-Jan-23 17:56N 33°45' E 134°47'9816.8
2018-Jan-23 12:06N 32°45' E 133°15'5 0.2
2018-Jan-22 13:09N 32°50' E 133°12'9314.9
2018-Jan-22 06:55N 33°43' E 134°44'817.0
2018-Jan-22 06:26N 33°49' E 134°50'816.5
2018-Jan-22 05:56N 33°57' E 134°53'716.7
2018-Jan-22 05:30N 34°04' E 134°55'816.6
2018-Jan-22 05:00N 34°12' E 134°57'815.5
2018-Jan-22 04:30N 34°19' E 134°59'815.2
2018-Jan-22 04:00N 34°25' E 135°06'816.3
2018-Jan-22 03:30N 34°29' E 135°14'612.2
2018-Jan-22 03:01N 34°31' E 135°21'0 0.6
2018-Jan-22 02:31N 34°31' E 135°21'2 4.1
2018-Jan-22 02:00N 34°31' E 135°24'0 0.2
2018-Jan-22 01:30N 34°31' E 135°24'0 0.0
2018-Jan-22 01:00N 34°31' E 135°24'0 0.0
2018-Jan-22 00:30N 34°31' E 135°24'0 0.0
2018-Jan-22 00:00N 34°31' E 135°24'0 0.0
2018-Jan-21 23:30N 34°31' E 135°24'0 0.0
2018-Jan-21 23:00N 34°31' E 135°24'0 0.0
2018-Jan-21 22:30N 34°31' E 135°24'0 0.0
2018-Jan-21 22:00N 34°31' E 135°24'0 0.0
2018-Jan-21 21:30N 34°31' E 135°24'2 3.2
2018-Jan-21 21:00N 34°32' E 135°22'816.5
2018-Jan-21 20:31N 34°28' E 135°13'816.3
2018-Jan-21 20:00N 34°23' E 135°05'815.7
2018-Jan-21 19:30N 34°17' E 134°59'815.8
2018-Jan-21 19:01N 34°09' E 134°59'816.6
2018-Jan-21 18:30N 34°01' E 134°56'816.6
2018-Jan-21 18:00N 33°53' E 134°53'816.1
2018-Jan-21 17:30N 33°47' E 134°47'  
2018-Jan-19 13:04N 32°50' E 133°12'9315.7
2018-Jan-19 07:09N 33°43' E 134°44'316.5
2018-Jan-19 06:56N 33°46' E 134°46'716.8
2018-Jan-19 06:30N 33°51' E 134°52'816.6
2018-Jan-19 06:01N 33°59' E 134°54'816.5
2018-Jan-19 05:31N 34°07' E 134°56'816.7
2018-Jan-19 05:00N 34°15' E 134°58'816.5
2018-Jan-19 04:30N 34°23' E 135°02'816.4
2018-Jan-19 04:01N 34°28' E 135°09'816.0
2018-Jan-19 03:31N 34°31' E 135°19'2 4.9
2018-Jan-19 03:00N 34°32' E 135°21'1 1.9
2018-Jan-19 02:30N 34°32' E 135°22'2 3.3
2018-Jan-19 02:00N 34°31' E 135°24'0 0.0
2018-Jan-19 01:29N 34°31' E 135°24'0 0.0
2018-Jan-19 00:56N 34°31' E 135°24'0 0.0
2018-Jan-19 00:29N 34°31' E 135°24'0 0.0
2018-Jan-18 23:59N 34°31' E 135°24'0 0.0
2018-Jan-18 23:29N 34°31' E 135°24'0 0.0
2018-Jan-18 22:59N 34°31' E 135°24'0 0.0
2018-Jan-18 22:26N 34°31' E 135°24'0 0.0
2018-Jan-18 21:59N 34°31' E 135°24'2 3.6
2018-Jan-18 21:30N 34°32' E 135°22'816.7
2018-Jan-18 21:00N 34°28' E 135°13'816.6
2018-Jan-18 20:31N 34°23' E 135°05'816.8
2018-Jan-18 20:01N 34°16' E 134°59'816.0
2018-Jan-18 19:31N 34°08' E 134°57'816.6
2018-Jan-18 19:01N 34°00' E 134°55'816.5
2018-Jan-18 18:30N 33°52' E 134°52'10516.7
2018-Jan-18 12:14N 32°45' E 133°15'  
Track history (hours):
 
Tides and Currents Weather Stations Pressure Air Temp Water Temp Dewpoint Dewpoint Depression Visibility Wind Speed Wind Dir Waves Ship Positions

Hakkou 21

Last reported at 2018-Jan-24 06:49 UTC. Time now 2018-Jan-24 11:27 UTC.
Position N 33°43' E 134°44'.

Length 121 m; draft 4.8 m.

Type: Cargo ship. MMSI: 431602082.

Date/timePositionNaut miles runAvg speedWind from/ knotsBaromVisibWave heightAir tempDewpointWater temp
2018-Jan-24 06:49N 33°43' E 134°44'616.7
2018-Jan-24 06:26N 33°48' E 134°49'715.5
2018-Jan-24 06:00N 33°54' E 134°53'816.0
2018-Jan-24 05:30N 34°02' E 134°55'815.9
2018-Jan-24 05:00N 34°10' E 134°57'815.3
2018-Jan-24 04:31N 34°17' E 134°58'714.4
2018-Jan-24 04:00N 34°23' E 135°02'714.2
2018-Jan-24 03:31N 34°26' E 135°10'714.4
2018-Jan-24 03:01N 34°30' E 135°18'4 7.7
2018-Jan-24 02:31N 34°32' E 135°22'2 3.3
2018-Jan-24 02:00N 34°31' E 135°23'0 0.3
2018-Jan-24 01:31N 34°31' E 135°24'0 0.0
2018-Jan-24 01:00N 34°31' E 135°24'0 0.0
2018-Jan-24 00:30N 34°31' E 135°24'0 0.0
2018-Jan-23 23:57N 34°31' E 135°24'0 0.0
2018-Jan-23 23:30N 34°31' E 135°24'0 0.0
2018-Jan-23 23:00N 34°31' E 135°24'0 0.0
2018-Jan-23 22:30N 34°31' E 135°24'0 0.1
2018-Jan-23 22:00N 34°31' E 135°24'2 4.7
2018-Jan-23 21:30N 34°32' E 135°21'816.7
2018-Jan-23 21:01N 34°27' E 135°12'816.6
2018-Jan-23 20:31N 34°22' E 135°04'714.6
2018-Jan-23 20:00N 34°15' E 134°60'714.8
2018-Jan-23 19:31N 34°08' E 135°00'816.0
2018-Jan-23 19:00N 34°01' E 134°57'816.5
2018-Jan-23 18:30N 33°53' E 134°54'916.2
2018-Jan-23 17:56N 33°45' E 134°47'9816.8
2018-Jan-23 12:06N 32°45' E 133°15'5 0.2
2018-Jan-22 13:09N 32°50' E 133°12'9314.9
2018-Jan-22 06:55N 33°43' E 134°44'817.0
2018-Jan-22 06:26N 33°49' E 134°50'816.5
2018-Jan-22 05:56N 33°57' E 134°53'716.7
2018-Jan-22 05:30N 34°04' E 134°55'816.6
2018-Jan-22 05:00N 34°12' E 134°57'815.5
2018-Jan-22 04:30N 34°19' E 134°59'815.2
2018-Jan-22 04:00N 34°25' E 135°06'816.3
2018-Jan-22 03:30N 34°29' E 135°14'612.2
2018-Jan-22 03:01N 34°31' E 135°21'0 0.6
2018-Jan-22 02:31N 34°31' E 135°21'2 4.1
2018-Jan-22 02:00N 34°31' E 135°24'0 0.2
2018-Jan-22 01:30N 34°31' E 135°24'0 0.0
2018-Jan-22 01:00N 34°31' E 135°24'0 0.0
2018-Jan-22 00:30N 34°31' E 135°24'0 0.0
2018-Jan-22 00:00N 34°31' E 135°24'0 0.0
2018-Jan-21 23:30N 34°31' E 135°24'0 0.0
2018-Jan-21 23:00N 34°31' E 135°24'0 0.0
2018-Jan-21 22:30N 34°31' E 135°24'0 0.0
2018-Jan-21 22:00N 34°31' E 135°24'0 0.0
2018-Jan-21 21:30N 34°31' E 135°24'2 3.2
2018-Jan-21 21:00N 34°32' E 135°22'816.5
2018-Jan-21 20:31N 34°28' E 135°13'816.3
2018-Jan-21 20:00N 34°23' E 135°05'815.7
2018-Jan-21 19:30N 34°17' E 134°59'815.8
2018-Jan-21 19:01N 34°09' E 134°59'816.6
2018-Jan-21 18:30N 34°01' E 134°56'816.6
2018-Jan-21 18:00N 33°53' E 134°53'816.1
2018-Jan-21 17:30N 33°47' E 134°47'  
2018-Jan-19 13:04N 32°50' E 133°12'9315.7
2018-Jan-19 07:09N 33°43' E 134°44'316.5
2018-Jan-19 06:56N 33°46' E 134°46'716.8
2018-Jan-19 06:30N 33°51' E 134°52'816.6
2018-Jan-19 06:01N 33°59' E 134°54'816.5
2018-Jan-19 05:31N 34°07' E 134°56'816.7
2018-Jan-19 05:00N 34°15' E 134°58'816.5
2018-Jan-19 04:30N 34°23' E 135°02'816.4
2018-Jan-19 04:01N 34°28' E 135°09'816.0
2018-Jan-19 03:31N 34°31' E 135°19'2 4.9
2018-Jan-19 03:00N 34°32' E 135°21'1 1.9
2018-Jan-19 02:30N 34°32' E 135°22'2 3.3
2018-Jan-19 02:00N 34°31' E 135°24'0 0.0
2018-Jan-19 01:29N 34°31' E 135°24'0 0.0
2018-Jan-19 00:56N 34°31' E 135°24'0 0.0
2018-Jan-19 00:29N 34°31' E 135°24'0 0.0
2018-Jan-18 23:59N 34°31' E 135°24'0 0.0
2018-Jan-18 23:29N 34°31' E 135°24'0 0.0
2018-Jan-18 22:59N 34°31' E 135°24'0 0.0
2018-Jan-18 22:26N 34°31' E 135°24'0 0.0
2018-Jan-18 21:59N 34°31' E 135°24'2 3.6
2018-Jan-18 21:30N 34°32' E 135°22'816.7
2018-Jan-18 21:00N 34°28' E 135°13'816.6
2018-Jan-18 20:31N 34°23' E 135°05'816.8
2018-Jan-18 20:01N 34°16' E 134°59'816.0
2018-Jan-18 19:31N 34°08' E 134°57'816.6
2018-Jan-18 19:01N 34°00' E 134°55'816.5
2018-Jan-18 18:30N 33°52' E 134°52'10516.7
2018-Jan-18 12:14N 32°45' E 133°15'  

Dump ship's entire track history